sensor_id;sensor_type;location;lat;lon;timestamp;pressure;altitude;pressure_sealevel;temperature;humidity
43430;BME280;29028;43.234;27.896;2022-12-13T14:35:02;99984.91;;;2.39;70.09
43430;BME280;29028;43.234;27.896;2022-12-13T14:35:25;99998.31;;;2.47;70.27
43430;BME280;29028;43.234;27.896;2022-12-13T14:35:50;99983.94;;;2.40;70.75
43430;BME280;29028;43.234;27.896;2022-12-13T14:36:15;100000.59;;;2.42;70.65
43430;BME280;29028;43.234;27.896;2022-12-13T14:36:37;100000.00;;;2.39;70.06
43430;BME280;29028;43.234;27.896;2022-12-13T14:37:00;99995.13;;;2.34;70.23
43430;BME280;29028;43.234;27.896;2022-12-13T14:37:25;99990.13;;;2.31;69.50
43430;BME280;29028;43.234;27.896;2022-12-13T14:38:00;99995.28;;;2.33;69.40
43430;BME280;29028;43.234;27.896;2022-12-13T14:38:23;99992.63;;;2.33;69.74
43430;BME280;29028;43.234;27.896;2022-12-13T14:38:44;99999.31;;;2.37;70.21
43430;BME280;29028;43.234;27.896;2022-12-13T14:39:14;99998.66;;;2.35;70.07
43430;BME280;29028;43.234;27.896;2022-12-13T14:39:35;99990.38;;;2.38;71.12
43430;BME280;29028;43.234;27.896;2022-12-13T14:39:56;99998.19;;;2.39;69.94
43430;BME280;29028;43.234;27.896;2022-12-13T14:40:26;99999.16;;;2.48;70.80
43430;BME280;29028;43.234;27.896;2022-12-13T14:40:49;99994.41;;;2.51;70.71
43430;BME280;29028;43.234;27.896;2022-12-13T14:41:15;99997.59;;;2.55;71.65
43430;BME280;29028;43.234;27.896;2022-12-13T14:41:44;99999.13;;;2.57;70.92
43430;BME280;29028;43.234;27.896;2022-12-13T14:42:21;99992.03;;;2.48;69.85
43430;BME280;29028;43.234;27.896;2022-12-13T14:42:43;100002.66;;;2.48;69.86
43430;BME280;29028;43.234;27.896;2022-12-13T14:43:05;99990.66;;;2.44;69.62
43430;BME280;29028;43.234;27.896;2022-12-13T14:43:28;99994.69;;;2.48;70.80
43430;BME280;29028;43.234;27.896;2022-12-13T14:43:49;99989.50;;;2.56;71.53
43430;BME280;29028;43.234;27.896;2022-12-13T14:44:13;99990.88;;;2.60;72.29
43430;BME280;29028;43.234;27.896;2022-12-13T14:44:35;99991.44;;;2.64;72.26
43430;BME280;29028;43.234;27.896;2022-12-13T14:45:12;99993.81;;;2.57;71.13
43430;BME280;29028;43.234;27.896;2022-12-13T14:45:35;99991.75;;;2.51;70.20
43430;BME280;29028;43.234;27.896;2022-12-13T14:45:57;99992.56;;;2.61;70.43
43430;BME280;29028;43.234;27.896;2022-12-13T14:46:20;99994.34;;;2.61;70.61
43430;BME280;29028;43.234;27.896;2022-12-13T14:46:49;99994.84;;;2.47;69.45
43430;BME280;29028;43.234;27.896;2022-12-13T14:47:10;99989.78;;;2.44;69.40
43430;BME280;29028;43.234;27.896;2022-12-13T14:47:33;99984.25;;;2.37;69.10
43430;BME280;29028;43.234;27.896;2022-12-13T14:47:55;99989.56;;;2.37;68.90
43430;BME280;29028;43.234;27.896;2022-12-13T14:48:16;99989.97;;;2.33;69.45
43430;BME280;29028;43.234;27.896;2022-12-13T14:48:43;99994.72;;;2.29;69.73
43430;BME280;29028;43.234;27.896;2022-12-13T14:49:05;99992.19;;;2.28;69.81
43430;BME280;29028;43.234;27.896;2022-12-13T14:49:27;99995.03;;;2.26;70.20
43430;BME280;29028;43.234;27.896;2022-12-13T14:49:53;99992.47;;;2.34;70.96
43430;BME280;29028;43.234;27.896;2022-12-13T14:50:17;99994.72;;;2.29;70.41
43430;BME280;29028;43.234;27.896;2022-12-13T14:50:40;100003.97;;;2.35;70.36
43430;BME280;29028;43.234;27.896;2022-12-13T14:51:03;99996.81;;;2.35;70.59
43430;BME280;29028;43.234;27.896;2022-12-13T14:51:32;100003.09;;;2.34;70.24
43430;BME280;29028;43.234;27.896;2022-12-13T14:51:55;100005.66;;;2.26;70.22
43430;BME280;29028;43.234;27.896;2022-12-13T14:52:22;100006.75;;;2.33;71.08
43430;BME280;29028;43.234;27.896;2022-12-13T14:52:46;100004.53;;;2.29;71.02
43430;BME280;29028;43.234;27.896;2022-12-13T14:53:20;100011.75;;;2.36;71.77
43430;BME280;29028;43.234;27.896;2022-12-13T14:53:43;100018.88;;;2.45;72.45
43430;BME280;29028;43.234;27.896;2022-12-13T14:54:06;100008.28;;;2.36;71.41
43430;BME280;29028;43.234;27.896;2022-12-13T14:54:30;100017.91;;;2.46;71.46
43430;BME280;29028;43.234;27.896;2022-12-13T14:54:55;100024.19;;;2.45;71.78
43430;BME280;29028;43.234;27.896;2022-12-13T14:55:24;100012.88;;;2.43;71.84
43430;BME280;29028;43.234;27.896;2022-12-13T14:56:01;100022.94;;;2.49;72.32
43430;BME280;29028;43.234;27.896;2022-12-13T14:56:22;100025.88;;;2.46;72.28
43430;BME280;29028;43.234;27.896;2022-12-13T14:56:55;100018.78;;;2.37;71.85
43430;BME280;29028;43.234;27.896;2022-12-13T14:57:18;100023.81;;;2.31;71.71
43430;BME280;29028;43.234;27.896;2022-12-13T14:57:50;100017.69;;;2.11;71.80
43430;BME280;29028;43.234;27.896;2022-12-13T14:58:16;100014.88;;;2.13;72.02
43430;BME280;29028;43.234;27.896;2022-12-13T14:58:50;100015.03;;;2.11;72.30
43430;BME280;29028;43.234;27.896;2022-12-13T14:59:11;100021.28;;;2.01;72.24
43430;BME280;29028;43.234;27.896;2022-12-13T14:59:33;100018.22;;;1.96;72.42
43430;BME280;29028;43.234;27.896;2022-12-13T14:59:56;100026.47;;;2.02;73.14
43430;BME280;29028;43.234;27.896;2022-12-13T15:00:24;100030.53;;;1.97;73.20
43430;BME280;29028;43.234;27.896;2022-12-13T15:00:45;100021.59;;;1.98;72.87
43430;BME280;29028;43.234;27.896;2022-12-13T15:01:23;100021.72;;;1.96;72.10
43430;BME280;29028;43.234;27.896;2022-12-13T15:01:53;100026.06;;;1.97;72.13
43430;BME280;29028;43.234;27.896;2022-12-13T15:02:17;100024.94;;;2.00;72.35
43430;BME280;29028;43.234;27.896;2022-12-13T15:02:49;100027.59;;;2.00;71.68
43430;BME280;29028;43.234;27.896;2022-12-13T15:03:19;100029.13;;;2.02;72.09
43430;BME280;29028;43.234;27.896;2022-12-13T15:03:41;100032.06;;;1.99;72.41
43430;BME280;29028;43.234;27.896;2022-12-13T15:04:16;100026.91;;;1.98;72.91
43430;BME280;29028;43.234;27.896;2022-12-13T15:04:38;100025.22;;;1.97;73.44
43430;BME280;29028;43.234;27.896;2022-12-13T15:05:00;100030.66;;;1.95;73.36
43430;BME280;29028;43.234;27.896;2022-12-13T15:05:26;100014.31;;;1.90;73.17
43430;BME280;29028;43.234;27.896;2022-12-13T15:05:51;100034.56;;;2.01;72.21
43430;BME280;29028;43.234;27.896;2022-12-13T15:06:13;100032.75;;;2.01;72.24
43430;BME280;29028;43.234;27.896;2022-12-13T15:06:37;100031.78;;;2.02;73.19
43430;BME280;29028;43.234;27.896;2022-12-13T15:07:02;100035.41;;;2.01;73.09
43430;BME280;29028;43.234;27.896;2022-12-13T15:07:28;100041.28;;;1.95;72.83
43430;BME280;29028;43.234;27.896;2022-12-13T15:07:52;100030.13;;;1.92;73.15
43430;BME280;29028;43.234;27.896;2022-12-13T15:08:15;100033.31;;;1.95;73.25
43430;BME280;29028;43.234;27.896;2022-12-13T15:08:38;100031.50;;;1.96;72.90
43430;BME280;29028;43.234;27.896;2022-12-13T15:09:01;100039.88;;;2.01;72.84
43430;BME280;29028;43.234;27.896;2022-12-13T15:09:23;100039.47;;;2.05;73.34
43430;BME280;29028;43.234;27.896;2022-12-13T15:09:44;100041.28;;;2.14;74.46
43430;BME280;29028;43.234;27.896;2022-12-13T15:10:18;100047.72;;;2.21;74.73
43430;BME280;29028;43.234;27.896;2022-12-13T15:10:43;100038.91;;;2.21;74.83
43430;BME280;29028;43.234;27.896;2022-12-13T15:11:08;100042.53;;;2.20;74.46
43430;BME280;29028;43.234;27.896;2022-12-13T15:11:29;100039.34;;;2.16;73.60
43430;BME280;29028;43.234;27.896;2022-12-13T15:11:51;100048.97;;;2.17;73.29
43430;BME280;29028;43.234;27.896;2022-12-13T15:12:14;100044.09;;;2.22;73.00
43430;BME280;29028;43.234;27.896;2022-12-13T15:12:39;100043.22;;;2.22;72.98
43430;BME280;29028;43.234;27.896;2022-12-13T15:13:00;100036.66;;;2.26;73.25
43430;BME280;29028;43.234;27.896;2022-12-13T15:13:28;100045.19;;;2.20;73.16
43430;BME280;29028;43.234;27.896;2022-12-13T15:13:53;100030.22;;;2.09;73.00
43430;BME280;29028;43.234;27.896;2022-12-13T15:14:15;100037.50;;;2.07;72.59
43430;BME280;29028;43.234;27.896;2022-12-13T15:14:41;100038.75;;;2.03;72.48
43430;BME280;29028;43.234;27.896;2022-12-13T15:15:06;100040.19;;;1.98;72.60
43430;BME280;29028;43.234;27.896;2022-12-13T15:15:30;100041.03;;;2.08;72.95
43430;BME280;29028;43.234;27.896;2022-12-13T15:15:55;100040.72;;;2.01;72.88
43430;BME280;29028;43.234;27.896;2022-12-13T15:16:22;100046.47;;;2.06;73.17
43430;BME280;29028;43.234;27.896;2022-12-13T15:16:48;100047.03;;;2.00;73.44
43430;BME280;29028;43.234;27.896;2022-12-13T15:17:25;100044.91;;;2.13;73.88
43430;BME280;29028;43.234;27.896;2022-12-13T15:17:47;100050.09;;;2.15;73.92
43430;BME280;29028;43.234;27.896;2022-12-13T15:18:16;100056.38;;;2.23;74.84
43430;BME280;29028;43.234;27.896;2022-12-13T15:18:37;100058.78;;;2.26;74.93
43430;BME280;29028;43.234;27.896;2022-12-13T15:19:06;100059.16;;;2.22;75.11
43430;BME280;29028;43.234;27.896;2022-12-13T15:19:40;100058.78;;;2.26;75.86
43430;BME280;29028;43.234;27.896;2022-12-13T15:20:20;100058.88;;;2.44;76.44
43430;BME280;29028;43.234;27.896;2022-12-13T15:20:44;100049.50;;;2.49;76.11
43430;BME280;29028;43.234;27.896;2022-12-13T15:21:19;100066.13;;;2.61;76.28
43430;BME280;29028;43.234;27.896;2022-12-13T15:21:41;100059.84;;;2.62;75.92
43430;BME280;29028;43.234;27.896;2022-12-13T15:22:14;100064.44;;;2.60;75.79
43430;BME280;29028;43.234;27.896;2022-12-13T15:22:35;100066.69;;;2.55;75.46
43430;BME280;29028;43.234;27.896;2022-12-13T15:22:58;100068.09;;;2.49;74.87
43430;BME280;29028;43.234;27.896;2022-12-13T15:23:22;100066.69;;;2.55;74.86
43430;BME280;29028;43.234;27.896;2022-12-13T15:23:45;100076.75;;;2.61;75.12
43430;BME280;29028;43.234;27.896;2022-12-13T15:24:10;100071.88;;;2.56;74.42
43430;BME280;29028;43.234;27.896;2022-12-13T15:24:33;100074.25;;;2.50;74.24
43430;BME280;29028;43.234;27.896;2022-12-13T15:24:57;100079.56;;;2.59;74.50
43430;BME280;29028;43.234;27.896;2022-12-13T15:25:18;100070.88;;;2.57;73.96
43430;BME280;29028;43.234;27.896;2022-12-13T15:25:39;100076.38;;;2.56;74.49
43430;BME280;29028;43.234;27.896;2022-12-13T15:26:06;100075.50;;;2.55;75.13
43430;BME280;29028;43.234;27.896;2022-12-13T15:26:27;100077.47;;;2.53;75.48
43430;BME280;29028;43.234;27.896;2022-12-13T15:26:50;100076.22;;;2.48;74.69
43430;BME280;29028;43.234;27.896;2022-12-13T15:27:12;100078.19;;;2.46;74.72
43430;BME280;29028;43.234;27.896;2022-12-13T15:27:33;100078.72;;;2.49;75.06
43430;BME280;29028;43.234;27.896;2022-12-13T15:27:56;100078.88;;;2.48;75.49
43430;BME280;29028;43.234;27.896;2022-12-13T15:28:17;100076.50;;;2.54;74.96
43430;BME280;29028;43.234;27.896;2022-12-13T15:28:41;100078.03;;;2.57;75.34
43430;BME280;29028;43.234;27.896;2022-12-13T15:29:05;100075.66;;;2.54;74.99
43430;BME280;29028;43.234;27.896;2022-12-13T15:29:30;100074.81;;;2.63;74.58
43430;BME280;29028;43.234;27.896;2022-12-13T15:29:52;100083.19;;;2.58;74.22
43430;BME280;29028;43.234;27.896;2022-12-13T15:30:14;100070.75;;;2.49;73.96
43430;BME280;29028;43.234;27.896;2022-12-13T15:30:35;100088.81;;;2.46;73.78
43430;BME280;29028;43.234;27.896;2022-12-13T15:30:57;100080.44;;;2.31;72.95
43430;BME280;29028;43.234;27.896;2022-12-13T15:31:20;100072.19;;;2.25;73.55
43430;BME280;29028;43.234;27.896;2022-12-13T15:31:41;100079.16;;;2.16;73.69
43430;BME280;29028;43.234;27.896;2022-12-13T15:32:02;100071.03;;;2.08;74.01
43430;BME280;29028;43.234;27.896;2022-12-13T15:32:24;100073.56;;;2.10;74.00
43430;BME280;29028;43.234;27.896;2022-12-13T15:33:01;100077.88;;;2.20;74.23
43430;BME280;29028;43.234;27.896;2022-12-13T15:33:24;100079.19;;;2.07;73.60
43430;BME280;29028;43.234;27.896;2022-12-13T15:33:46;100067.53;;;1.98;72.94
43430;BME280;29028;43.234;27.896;2022-12-13T15:34:20;100081.09;;;1.95;72.81
43430;BME280;29028;43.234;27.896;2022-12-13T15:34:42;100080.25;;;1.95;72.90
43430;BME280;29028;43.234;27.896;2022-12-13T15:35:14;100077.34;;;1.88;72.71
43430;BME280;29028;43.234;27.896;2022-12-13T15:35:36;100076.63;;;1.86;72.98
43430;BME280;29028;43.234;27.896;2022-12-13T15:36:05;100082.78;;;1.87;73.50
43430;BME280;29028;43.234;27.896;2022-12-13T15:36:27;100087.78;;;1.90;73.54
43430;BME280;29028;43.234;27.896;2022-12-13T15:36:49;100083.75;;;1.86;73.52
43430;BME280;29028;43.234;27.896;2022-12-13T15:37:17;100083.88;;;1.84;73.79
43430;BME280;29028;43.234;27.896;2022-12-13T15:37:44;100077.72;;;1.84;74.46
43430;BME280;29028;43.234;27.896;2022-12-13T15:38:10;100085.44;;;1.96;75.69
43430;BME280;29028;43.234;27.896;2022-12-13T15:38:33;100082.34;;;2.01;76.11
43430;BME280;29028;43.234;27.896;2022-12-13T15:38:59;100077.78;;;1.93;76.03
43430;BME280;29028;43.234;27.896;2022-12-13T15:39:22;100089.75;;;1.97;75.47
43430;BME280;29028;43.234;27.896;2022-12-13T15:39:44;100092.28;;;1.99;75.51
43430;BME280;29028;43.234;27.896;2022-12-13T15:40:08;100088.09;;;1.96;75.69
43430;BME280;29028;43.234;27.896;2022-12-13T15:40:30;100096.75;;;1.98;75.38
43430;BME280;29028;43.234;27.896;2022-12-13T15:40:51;100087.53;;;2.02;75.84
43430;BME280;29028;43.234;27.896;2022-12-13T15:41:15;100093.00;;;2.10;76.72
43430;BME280;29028;43.234;27.896;2022-12-13T15:41:42;100072.88;;;2.08;77.28
43430;BME280;29028;43.234;27.896;2022-12-13T15:42:04;100095.53;;;2.21;77.34
43430;BME280;29028;43.234;27.896;2022-12-13T15:42:29;100093.44;;;2.15;77.17
43430;BME280;29028;43.234;27.896;2022-12-13T15:42:52;100096.22;;;2.23;77.17
43430;BME280;29028;43.234;27.896;2022-12-13T15:43:14;100093.69;;;2.22;76.87
43430;BME280;29028;43.234;27.896;2022-12-13T15:43:42;100097.47;;;2.19;76.47
43430;BME280;29028;43.234;27.896;2022-12-13T15:44:06;100087.41;;;2.13;77.03
43430;BME280;29028;43.234;27.896;2022-12-13T15:44:40;100104.91;;;2.35;78.03
43430;BME280;29028;43.234;27.896;2022-12-13T15:45:16;100107.94;;;2.30;77.47
43430;BME280;29028;43.234;27.896;2022-12-13T15:45:38;100111.88;;;2.26;76.40
43430;BME280;29028;43.234;27.896;2022-12-13T15:45:59;100106.84;;;2.23;76.68
43430;BME280;29028;43.234;27.896;2022-12-13T15:46:24;100106.56;;;2.26;76.90
43430;BME280;29028;43.234;27.896;2022-12-13T15:46:47;100105.16;;;2.32;77.16
43430;BME280;29028;43.234;27.896;2022-12-13T15:47:11;100103.50;;;2.31;76.72
43430;BME280;29028;43.234;27.896;2022-12-13T15:47:34;100106.00;;;2.32;76.88
43430;BME280;29028;43.234;27.896;2022-12-13T15:47:55;100107.13;;;2.39;76.45
43430;BME280;29028;43.234;27.896;2022-12-13T15:48:24;100101.69;;;2.31;75.50
43430;BME280;29028;43.234;27.896;2022-12-13T15:48:48;100107.69;;;2.33;75.03
43430;BME280;29028;43.234;27.896;2022-12-13T15:49:21;100106.41;;;2.28;74.92
43430;BME280;29028;43.234;27.896;2022-12-13T15:49:49;100098.44;;;2.18;75.07
43430;BME280;29028;43.234;27.896;2022-12-13T15:50:29;100107.25;;;2.28;75.87
43430;BME280;29028;43.234;27.896;2022-12-13T15:51:05;100106.69;;;2.34;75.72
43430;BME280;29028;43.234;27.896;2022-12-13T15:51:27;100100.41;;;2.35;75.86
43430;BME280;29028;43.234;27.896;2022-12-13T15:51:53;100101.09;;;2.28;76.24
43430;BME280;29028;43.234;27.896;2022-12-13T15:52:33;100109.78;;;2.39;76.58
43430;BME280;29028;43.234;27.896;2022-12-13T15:52:58;100111.34;;;2.32;76.54
43430;BME280;29028;43.234;27.896;2022-12-13T15:53:22;100110.78;;;2.29;76.64
43430;BME280;29028;43.234;27.896;2022-12-13T15:54:01;100110.22;;;2.35;77.88
43430;BME280;29028;43.234;27.896;2022-12-13T15:54:24;100112.56;;;2.28;77.38
43430;BME280;29028;43.234;27.896;2022-12-13T15:54:54;100113.00;;;2.33;77.82
43430;BME280;29028;43.234;27.896;2022-12-13T15:55:24;100111.72;;;2.28;78.41
43430;BME280;29028;43.234;27.896;2022-12-13T15:55:46;100106.00;;;2.32;78.64
43430;BME280;29028;43.234;27.896;2022-12-13T15:56:29;100100.97;;;2.10;77.85
43430;BME280;29028;43.234;27.896;2022-12-13T15:57:00;100118.28;;;2.14;77.91
43430;BME280;29028;43.234;27.896;2022-12-13T15:57:23;100117.84;;;2.09;77.39
43430;BME280;29028;43.234;27.896;2022-12-13T15:57:49;100114.63;;;1.96;77.12
43430;BME280;29028;43.234;27.896;2022-12-13T15:58:22;100107.09;;;1.82;76.85
43430;BME280;29028;43.234;27.896;2022-12-13T15:58:51;100108.59;;;1.75;77.05
43430;BME280;29028;43.234;27.896;2022-12-13T15:59:24;100110.56;;;1.73;77.14
43430;BME280;29028;43.234;27.896;2022-12-13T15:59:46;100117.28;;;1.87;77.31
43430;BME280;29028;43.234;27.896;2022-12-13T16:00:19;100114.34;;;1.90;77.83
43430;BME280;29028;43.234;27.896;2022-12-13T16:00:47;100116.28;;;1.78;77.55
43430;BME280;29028;43.234;27.896;2022-12-13T16:01:23;100112.53;;;1.90;78.78
43430;BME280;29028;43.234;27.896;2022-12-13T16:01:49;100125.13;;;1.88;78.72
43430;BME280;29028;43.234;27.896;2022-12-13T16:02:14;100127.91;;;1.96;79.50
43430;BME280;29028;43.234;27.896;2022-12-13T16:02:51;100128.88;;;1.86;78.30
43430;BME280;29028;43.234;27.896;2022-12-13T16:03:15;100123.84;;;1.92;78.67
43430;BME280;29028;43.234;27.896;2022-12-13T16:03:41;100124.00;;;1.91;78.99
43430;BME280;29028;43.234;27.896;2022-12-13T16:04:03;100126.38;;;2.03;79.52
43430;BME280;29028;43.234;27.896;2022-12-13T16:04:26;100126.41;;;2.22;80.42
43430;BME280;29028;43.234;27.896;2022-12-13T16:04:49;100136.19;;;2.12;79.70
43430;BME280;29028;43.234;27.896;2022-12-13T16:05:21;100140.94;;;2.18;80.16
43430;BME280;29028;43.234;27.896;2022-12-13T16:05:46;100134.66;;;2.19;79.85
43430;BME280;29028;43.234;27.896;2022-12-13T16:06:16;100132.28;;;2.26;79.72
43430;BME280;29028;43.234;27.896;2022-12-13T16:06:37;100142.06;;;2.16;79.50
43430;BME280;29028;43.234;27.896;2022-12-13T16:06:58;100133.94;;;2.08;79.26
43430;BME280;29028;43.234;27.896;2022-12-13T16:07:24;100134.94;;;2.16;80.79
43430;BME280;29028;43.234;27.896;2022-12-13T16:07:48;100134.34;;;2.03;79.79
43430;BME280;29028;43.234;27.896;2022-12-13T16:08:23;100142.75;;;2.08;80.86
43430;BME280;29028;43.234;27.896;2022-12-13T16:08:48;100142.22;;;2.24;81.95
43430;BME280;29028;43.234;27.896;2022-12-13T16:09:16;100151.44;;;2.29;82.33
43430;BME280;29028;43.234;27.896;2022-12-13T16:09:38;100139.41;;;2.25;82.33
43430;BME280;29028;43.234;27.896;2022-12-13T16:10:00;100149.34;;;2.33;82.38
43430;BME280;29028;43.234;27.896;2022-12-13T16:10:21;100140.25;;;2.35;82.80
43430;BME280;29028;43.234;27.896;2022-12-13T16:10:45;100158.16;;;2.43;82.87
43430;BME280;29028;43.234;27.896;2022-12-13T16:11:07;100151.31;;;2.40;82.62
43430;BME280;29028;43.234;27.896;2022-12-13T16:11:32;100154.38;;;2.36;82.62
43430;BME280;29028;43.234;27.896;2022-12-13T16:11:56;100161.06;;;2.30;82.61
43430;BME280;29028;43.234;27.896;2022-12-13T16:12:20;100157.19;;;2.25;82.56
43430;BME280;29028;43.234;27.896;2022-12-13T16:12:45;100162.63;;;2.33;82.06
43430;BME280;29028;43.234;27.896;2022-12-13T16:13:21;100158.44;;;2.40;81.37
43430;BME280;29028;43.234;27.896;2022-12-13T16:13:43;100162.66;;;2.42;80.86
43430;BME280;29028;43.234;27.896;2022-12-13T16:14:26;100161.81;;;2.42;80.80
43430;BME280;29028;43.234;27.896;2022-12-13T16:15:07;100157.59;;;2.39;79.99
43430;BME280;29028;43.234;27.896;2022-12-13T16:15:47;100170.47;;;2.44;79.61
43430;BME280;29028;43.234;27.896;2022-12-13T16:16:21;100163.91;;;2.38;79.14
43430;BME280;29028;43.234;27.896;2022-12-13T16:16:44;100164.03;;;2.37;79.21
43430;BME280;29028;43.234;27.896;2022-12-13T16:17:11;100166.81;;;2.26;78.70
43430;BME280;29028;43.234;27.896;2022-12-13T16:17:33;100169.47;;;2.26;78.91
43430;BME280;29028;43.234;27.896;2022-12-13T16:18:04;100169.72;;;2.23;77.92
43430;BME280;29028;43.234;27.896;2022-12-13T16:18:30;100170.16;;;2.18;77.06
43430;BME280;29028;43.234;27.896;2022-12-13T16:18:53;100167.06;;;2.13;76.93
43430;BME280;29028;43.234;27.896;2022-12-13T16:19:18;100166.50;;;2.19;77.19
43430;BME280;29028;43.234;27.896;2022-12-13T16:19:39;100176.59;;;2.25;77.32
43430;BME280;29028;43.234;27.896;2022-12-13T16:20:00;100165.41;;;2.22;77.26
43430;BME280;29028;43.234;27.896;2022-12-13T16:20:22;100171.84;;;2.19;77.52
43430;BME280;29028;43.234;27.896;2022-12-13T16:20:43;100164.28;;;2.15;77.52
43430;BME280;29028;43.234;27.896;2022-12-13T16:21:07;100164.97;;;2.17;77.46
43430;BME280;29028;43.234;27.896;2022-12-13T16:21:31;100166.56;;;2.29;78.38
43430;BME280;29028;43.234;27.896;2022-12-13T16:21:52;100164.59;;;2.40;78.53
43430;BME280;29028;43.234;27.896;2022-12-13T16:22:12;100173.97;;;2.44;78.23
43430;BME280;29028;43.234;27.896;2022-12-13T16:22:34;100169.47;;;2.35;77.98
43430;BME280;29028;43.234;27.896;2022-12-13T16:22:55;100158.16;;;2.24;77.45
43430;BME280;29028;43.234;27.896;2022-12-13T16:23:16;100158.13;;;2.14;77.70
43430;BME280;29028;43.234;27.896;2022-12-13T16:23:38;100163.31;;;2.16;77.90
43430;BME280;29028;43.234;27.896;2022-12-13T16:23:58;100168.34;;;2.19;78.24
43430;BME280;29028;43.234;27.896;2022-12-13T16:24:19;100168.91;;;2.13;77.96
43430;BME280;29028;43.234;27.896;2022-12-13T16:24:41;100171.13;;;2.17;78.58
43430;BME280;29028;43.234;27.896;2022-12-13T16:25:02;100168.47;;;2.17;78.66
43430;BME280;29028;43.234;27.896;2022-12-13T16:25:23;100179.25;;;2.25;79.41
43430;BME280;29028;43.234;27.896;2022-12-13T16:25:45;100169.63;;;2.43;81.53
43430;BME280;29028;43.234;27.896;2022-12-13T16:26:08;100174.09;;;2.43;81.36
43430;BME280;29028;43.234;27.896;2022-12-13T16:26:29;100161.38;;;2.46;81.22
43430;BME280;29028;43.234;27.896;2022-12-13T16:26:51;100172.97;;;2.55;81.01
43430;BME280;29028;43.234;27.896;2022-12-13T16:27:12;100170.50;;;2.53;80.90
43430;BME280;29028;43.234;27.896;2022-12-13T16:27:33;100168.53;;;2.46;80.75
43430;BME280;29028;43.234;27.896;2022-12-13T16:27:56;100168.34;;;2.47;79.88
43430;BME280;29028;43.234;27.896;2022-12-13T16:28:17;100169.63;;;2.43;80.63
43430;BME280;29028;43.234;27.896;2022-12-13T16:28:39;100175.50;;;2.37;80.10
43430;BME280;29028;43.234;27.896;2022-12-13T16:29:00;100157.72;;;2.47;80.39
43430;BME280;29028;43.234;27.896;2022-12-13T16:29:21;100174.94;;;2.43;80.24
43430;BME280;29028;43.234;27.896;2022-12-13T16:29:43;100167.53;;;2.37;79.68
43430;BME280;29028;43.234;27.896;2022-12-13T16:30:13;100173.41;;;2.41;79.53
43430;BME280;29028;43.234;27.896;2022-12-13T16:30:59;100176.06;;;2.50;81.21
43430;BME280;29028;43.234;27.896;2022-12-13T16:31:24;100165.31;;;2.52;82.04
43430;BME280;29028;43.234;27.896;2022-12-13T16:31:45;100171.88;;;2.48;82.10
43430;BME280;29028;43.234;27.896;2022-12-13T16:32:06;100173.28;;;2.42;81.57
43430;BME280;29028;43.234;27.896;2022-12-13T16:32:29;100177.75;;;2.42;81.40
43430;BME280;29028;43.234;27.896;2022-12-13T16:32:51;100169.22;;;2.29;81.05
43430;BME280;29028;43.234;27.896;2022-12-13T16:33:12;100174.66;;;2.27;80.89
43430;BME280;29028;43.234;27.896;2022-12-13T16:33:34;100176.03;;;2.22;81.05
43430;BME280;29028;43.234;27.896;2022-12-13T16:33:55;100178.81;;;2.20;81.09
43430;BME280;29028;43.234;27.896;2022-12-13T16:34:16;100175.59;;;2.17;80.69
43430;BME280;29028;43.234;27.896;2022-12-13T16:34:38;100179.53;;;2.13;80.35
43430;BME280;29028;43.234;27.896;2022-12-13T16:34:59;100175.75;;;2.15;80.49
43430;BME280;29028;43.234;27.896;2022-12-13T16:35:20;100175.88;;;2.14;80.27
43430;BME280;29028;43.234;27.896;2022-12-13T16:35:41;100180.78;;;2.18;80.13
43430;BME280;29028;43.234;27.896;2022-12-13T16:36:03;100177.56;;;2.15;79.62
43430;BME280;29028;43.234;27.896;2022-12-13T16:36:24;100175.22;;;2.21;79.70
43430;BME280;29028;43.234;27.896;2022-12-13T16:36:46;100168.78;;;2.24;79.44
43430;BME280;29028;43.234;27.896;2022-12-13T16:37:09;100175.47;;;2.18;79.39
43430;BME280;29028;43.234;27.896;2022-12-13T16:37:30;100178.41;;;2.15;78.80
43430;BME280;29028;43.234;27.896;2022-12-13T16:37:51;100178.81;;;2.11;78.84
43430;BME280;29028;43.234;27.896;2022-12-13T16:38:14;100176.69;;;2.05;78.71
43430;BME280;29028;43.234;27.896;2022-12-13T16:38:35;100171.50;;;2.03;78.79
43430;BME280;29028;43.234;27.896;2022-12-13T16:38:56;100177.94;;;2.01;78.65
43430;BME280;29028;43.234;27.896;2022-12-13T16:39:18;100182.28;;;3.25;88.75
43430;BME280;29028;43.234;27.896;2022-12-13T16:39:39;100177.69;;;3.91;97.04
43430;BME280;29028;43.234;27.896;2022-12-13T16:40:12;100168.50;;;4.65;100.00
43430;BME280;29028;43.234;27.896;2022-12-13T16:40:39;100167.31;;;5.28;100.00
43430;BME280;29028;43.234;27.896;2022-12-13T16:41:01;100166.63;;;5.51;100.00
43430;BME280;29028;43.234;27.896;2022-12-13T16:41:23;100163.06;;;5.94;100.00
43430;BME280;29028;43.234;27.896;2022-12-13T16:41:45;100168.22;;;6.45;100.00
43430;BME280;29028;43.234;27.896;2022-12-13T16:42:07;100169.94;;;6.78;100.00
43430;BME280;29028;43.234;27.896;2022-12-13T16:42:29;100166.84;;;7.61;100.00
43430;BME280;29028;43.234;27.896;2022-12-13T16:42:50;100167.00;;;7.67;100.00
43430;BME280;29028;43.234;27.896;2022-12-13T16:43:15;100162.19;;;7.39;100.00
43430;BME280;29028;43.234;27.896;2022-12-13T16:43:50;100162.19;;;7.47;100.00
43430;BME280;29028;43.234;27.896;2022-12-13T16:44:20;100165.72;;;7.15;100.00
43430;BME280;29028;43.234;27.896;2022-12-13T16:44:43;100166.41;;;6.93;100.00
43430;BME280;29028;43.234;27.896;2022-12-13T16:45:04;100170.25;;;6.75;100.00
43430;BME280;29028;43.234;27.896;2022-12-13T16:45:27;100163.19;;;6.34;100.00
43430;BME280;29028;43.234;27.896;2022-12-13T16:45:51;100159.94;;;6.14;100.00
43430;BME280;29028;43.234;27.896;2022-12-13T16:46:12;100167.91;;;5.98;100.00
43430;BME280;29028;43.234;27.896;2022-12-13T16:46:34;100167.75;;;5.74;100.00